sensor_id;sensor_type;location;lat;lon;timestamp;P1;durP1;ratioP1;P2;durP2;ratioP2
20629;SDS011;17386;43.846;25.950;2022-10-16T00:01:03;11.68;;;8.18;;
20629;SDS011;17386;43.846;25.950;2022-10-16T00:03:39;15.73;;;7.90;;
20629;SDS011;17386;43.846;25.950;2022-10-16T00:06:06;13.65;;;8.75;;
20629;SDS011;17386;43.846;25.950;2022-10-16T00:08:32;20.20;;;9.60;;
20629;SDS011;17386;43.846;25.950;2022-10-16T00:11:02;14.40;;;8.50;;
20629;SDS011;17386;43.846;25.950;2022-10-16T00:13:31;20.77;;;9.52;;
20629;SDS011;17386;43.846;25.950;2022-10-16T00:15:57;18.60;;;9.02;;
20629;SDS011;17386;43.846;25.950;2022-10-16T00:18:24;18.35;;;8.93;;
20629;SDS011;17386;43.846;25.950;2022-10-16T00:20:50;17.88;;;8.73;;
20629;SDS011;17386;43.846;25.950;2022-10-16T00:23:16;17.05;;;9.70;;
20629;SDS011;17386;43.846;25.950;2022-10-16T00:25:42;19.45;;;9.60;;
20629;SDS011;17386;43.846;25.950;2022-10-16T00:28:07;17.05;;;9.90;;
20629;SDS011;17386;43.846;25.950;2022-10-16T00:30:33;18.15;;;9.77;;
20629;SDS011;17386;43.846;25.950;2022-10-16T00:32:59;19.50;;;9.30;;
20629;SDS011;17386;43.846;25.950;2022-10-16T00:35:24;13.75;;;7.97;;
20629;SDS011;17386;43.846;25.950;2022-10-16T00:37:49;19.33;;;9.10;;
20629;SDS011;17386;43.846;25.950;2022-10-16T00:40:15;12.57;;;7.85;;
20629;SDS011;17386;43.846;25.950;2022-10-16T00:42:41;13.05;;;7.00;;
20629;SDS011;17386;43.846;25.950;2022-10-16T00:45:08;12.70;;;7.50;;
20629;SDS011;17386;43.846;25.950;2022-10-16T00:47:35;11.35;;;6.90;;
20629;SDS011;17386;43.846;25.950;2022-10-16T00:50:18;14.57;;;7.55;;
20629;SDS011;17386;43.846;25.950;2022-10-16T00:52:51;11.60;;;6.97;;
20629;SDS011;17386;43.846;25.950;2022-10-16T00:55:18;14.20;;;7.38;;
20629;SDS011;17386;43.846;25.950;2022-10-16T00:57:44;18.30;;;7.38;;
20629;SDS011;17386;43.846;25.950;2022-10-16T01:00:11;13.07;;;7.40;;
20629;SDS011;17386;43.846;25.950;2022-10-16T01:02:40;18.85;;;8.20;;
20629;SDS011;17386;43.846;25.950;2022-10-16T01:05:06;12.18;;;6.95;;
20629;SDS011;17386;43.846;25.950;2022-10-16T01:10:30;16.42;;;7.68;;
20629;SDS011;17386;43.846;25.950;2022-10-16T01:15:55;14.63;;;8.07;;
20629;SDS011;17386;43.846;25.950;2022-10-16T01:18:47;15.32;;;7.70;;
20629;SDS011;17386;43.846;25.950;2022-10-16T01:21:22;13.98;;;7.95;;
20629;SDS011;17386;43.846;25.950;2022-10-16T01:29:44;12.95;;;7.47;;
20629;SDS011;17386;43.846;25.950;2022-10-16T01:34:53;14.55;;;8.02;;
20629;SDS011;17386;43.846;25.950;2022-10-16T01:37:48;17.77;;;7.75;;
20629;SDS011;17386;43.846;25.950;2022-10-16T01:40:20;14.27;;;8.43;;
20629;SDS011;17386;43.846;25.950;2022-10-16T01:42:51;13.85;;;8.00;;
20629;SDS011;17386;43.846;25.950;2022-10-16T01:45:22;17.20;;;8.40;;
20629;SDS011;17386;43.846;25.950;2022-10-16T01:47:48;15.40;;;8.10;;
20629;SDS011;17386;43.846;25.950;2022-10-16T01:50:16;14.95;;;8.50;;
20629;SDS011;17386;43.846;25.950;2022-10-16T01:52:45;13.48;;;7.85;;
20629;SDS011;17386;43.846;25.950;2022-10-16T01:55:16;13.32;;;7.05;;
20629;SDS011;17386;43.846;25.950;2022-10-16T01:57:46;15.88;;;7.72;;
20629;SDS011;17386;43.846;25.950;2022-10-16T02:00:14;15.88;;;7.07;;
20629;SDS011;17386;43.846;25.950;2022-10-16T02:02:42;12.15;;;6.97;;
20629;SDS011;17386;43.846;25.950;2022-10-16T02:05:15;13.90;;;7.40;;
20629;SDS011;17386;43.846;25.950;2022-10-16T02:07:45;14.52;;;7.38;;
20629;SDS011;17386;43.846;25.950;2022-10-16T02:10:11;11.15;;;7.20;;
20629;SDS011;17386;43.846;25.950;2022-10-16T02:12:37;12.85;;;7.53;;
20629;SDS011;17386;43.846;25.950;2022-10-16T02:15:07;14.20;;;7.53;;
20629;SDS011;17386;43.846;25.950;2022-10-16T02:17:33;15.02;;;7.50;;
20629;SDS011;17386;43.846;25.950;2022-10-16T02:19:59;11.90;;;7.50;;
20629;SDS011;17386;43.846;25.950;2022-10-16T02:22:32;14.98;;;8.45;;
20629;SDS011;17386;43.846;25.950;2022-10-16T02:25:11;14.25;;;8.25;;
20629;SDS011;17386;43.846;25.950;2022-10-16T02:27:47;14.90;;;8.40;;
20629;SDS011;17386;43.846;25.950;2022-10-16T02:33:13;15.98;;;7.97;;
20629;SDS011;17386;43.846;25.950;2022-10-16T02:35:41;12.98;;;7.75;;
20629;SDS011;17386;43.846;25.950;2022-10-16T02:38:08;14.98;;;7.47;;
20629;SDS011;17386;43.846;25.950;2022-10-16T02:40:35;15.65;;;7.60;;
20629;SDS011;17386;43.846;25.950;2022-10-16T02:43:02;14.60;;;7.70;;
20629;SDS011;17386;43.846;25.950;2022-10-16T02:45:28;14.55;;;7.88;;
20629;SDS011;17386;43.846;25.950;2022-10-16T02:47:54;15.27;;;7.88;;
20629;SDS011;17386;43.846;25.950;2022-10-16T02:50:19;15.80;;;7.60;;
20629;SDS011;17386;43.846;25.950;2022-10-16T02:52:45;14.82;;;7.80;;
20629;SDS011;17386;43.846;25.950;2022-10-16T02:55:11;18.40;;;8.25;;
20629;SDS011;17386;43.846;25.950;2022-10-16T02:57:36;13.75;;;8.18;;
20629;SDS011;17386;43.846;25.950;2022-10-16T03:00:03;15.40;;;7.85;;
20629;SDS011;17386;43.846;25.950;2022-10-16T03:02:30;13.63;;;7.93;;
20629;SDS011;17386;43.846;25.950;2022-10-16T03:04:55;16.05;;;7.70;;
20629;SDS011;17386;43.846;25.950;2022-10-16T03:07:20;13.98;;;8.52;;
20629;SDS011;17386;43.846;25.950;2022-10-16T03:09:46;14.65;;;7.53;;
20629;SDS011;17386;43.846;25.950;2022-10-16T03:12:11;16.75;;;7.40;;
20629;SDS011;17386;43.846;25.950;2022-10-16T03:14:37;12.00;;;7.35;;
20629;SDS011;17386;43.846;25.950;2022-10-16T03:17:02;12.23;;;8.30;;
20629;SDS011;17386;43.846;25.950;2022-10-16T03:19:27;12.02;;;7.22;;
20629;SDS011;17386;43.846;25.950;2022-10-16T03:21:53;12.48;;;7.60;;
20629;SDS011;17386;43.846;25.950;2022-10-16T03:24:18;14.13;;;7.60;;
20629;SDS011;17386;43.846;25.950;2022-10-16T03:26:44;14.65;;;7.78;;
20629;SDS011;17386;43.846;25.950;2022-10-16T03:29:09;13.15;;;7.45;;
20629;SDS011;17386;43.846;25.950;2022-10-16T03:31:34;13.98;;;7.90;;
20629;SDS011;17386;43.846;25.950;2022-10-16T03:34:00;12.80;;;7.43;;
20629;SDS011;17386;43.846;25.950;2022-10-16T03:36:25;14.10;;;7.88;;
20629;SDS011;17386;43.846;25.950;2022-10-16T03:38:51;13.35;;;8.23;;
20629;SDS011;17386;43.846;25.950;2022-10-16T03:41:16;14.63;;;8.35;;
20629;SDS011;17386;43.846;25.950;2022-10-16T03:43:41;16.65;;;8.40;;
20629;SDS011;17386;43.846;25.950;2022-10-16T03:46:07;15.52;;;8.77;;
20629;SDS011;17386;43.846;25.950;2022-10-16T03:48:33;14.18;;;9.02;;
20629;SDS011;17386;43.846;25.950;2022-10-16T03:50:58;16.77;;;8.65;;
20629;SDS011;17386;43.846;25.950;2022-10-16T03:53:24;16.23;;;8.35;;
20629;SDS011;17386;43.846;25.950;2022-10-16T03:55:49;17.55;;;8.95;;
20629;SDS011;17386;43.846;25.950;2022-10-16T03:58:15;14.98;;;8.60;;
20629;SDS011;17386;43.846;25.950;2022-10-16T04:00:44;16.38;;;8.52;;
20629;SDS011;17386;43.846;25.950;2022-10-16T04:03:11;34.33;;;25.73;;
20629;SDS011;17386;43.846;25.950;2022-10-16T04:05:37;14.57;;;9.30;;
20629;SDS011;17386;43.846;25.950;2022-10-16T04:08:02;14.70;;;8.82;;
20629;SDS011;17386;43.846;25.950;2022-10-16T04:10:28;15.07;;;7.55;;
20629;SDS011;17386;43.846;25.950;2022-10-16T04:12:53;15.82;;;7.30;;
20629;SDS011;17386;43.846;25.950;2022-10-16T04:15:22;14.90;;;7.68;;
20629;SDS011;17386;43.846;25.950;2022-10-16T04:17:48;15.40;;;7.30;;
20629;SDS011;17386;43.846;25.950;2022-10-16T04:20:15;13.63;;;7.95;;
20629;SDS011;17386;43.846;25.950;2022-10-16T04:22:40;17.88;;;8.63;;
20629;SDS011;17386;43.846;25.950;2022-10-16T04:25:05;15.32;;;7.40;;
20629;SDS011;17386;43.846;25.950;2022-10-16T04:27:31;11.48;;;7.10;;
20629;SDS011;17386;43.846;25.950;2022-10-16T04:29:57;14.13;;;7.95;;
20629;SDS011;17386;43.846;25.950;2022-10-16T04:32:23;14.65;;;8.10;;
20629;SDS011;17386;43.846;25.950;2022-10-16T04:34:48;14.55;;;7.78;;
20629;SDS011;17386;43.846;25.950;2022-10-16T04:37:14;13.55;;;7.82;;
20629;SDS011;17386;43.846;25.950;2022-10-16T04:39:39;11.88;;;7.18;;
20629;SDS011;17386;43.846;25.950;2022-10-16T04:42:05;14.38;;;7.47;;
20629;SDS011;17386;43.846;25.950;2022-10-16T04:44:30;15.23;;;8.25;;
20629;SDS011;17386;43.846;25.950;2022-10-16T04:46:55;14.75;;;8.25;;
20629;SDS011;17386;43.846;25.950;2022-10-16T04:49:21;16.08;;;8.25;;
20629;SDS011;17386;43.846;25.950;2022-10-16T04:51:46;13.80;;;7.68;;
20629;SDS011;17386;43.846;25.950;2022-10-16T04:54:11;16.70;;;8.00;;
20629;SDS011;17386;43.846;25.950;2022-10-16T04:56:37;14.43;;;7.85;;
20629;SDS011;17386;43.846;25.950;2022-10-16T04:59:08;13.68;;;7.80;;
20629;SDS011;17386;43.846;25.950;2022-10-16T05:01:34;14.15;;;7.90;;
20629;SDS011;17386;43.846;25.950;2022-10-16T05:04:00;15.70;;;8.00;;
20629;SDS011;17386;43.846;25.950;2022-10-16T05:06:26;15.75;;;8.63;;
20629;SDS011;17386;43.846;25.950;2022-10-16T05:08:51;18.95;;;8.27;;
20629;SDS011;17386;43.846;25.950;2022-10-16T05:11:17;18.98;;;8.00;;
20629;SDS011;17386;43.846;25.950;2022-10-16T05:13:42;15.55;;;8.15;;
20629;SDS011;17386;43.846;25.950;2022-10-16T05:16:07;14.70;;;7.82;;
20629;SDS011;17386;43.846;25.950;2022-10-16T05:18:33;14.25;;;8.95;;
20629;SDS011;17386;43.846;25.950;2022-10-16T05:20:58;15.43;;;8.30;;
20629;SDS011;17386;43.846;25.950;2022-10-16T05:23:24;15.63;;;8.75;;
20629;SDS011;17386;43.846;25.950;2022-10-16T05:25:55;18.90;;;10.23;;
20629;SDS011;17386;43.846;25.950;2022-10-16T05:28:23;18.58;;;10.63;;
20629;SDS011;17386;43.846;25.950;2022-10-16T05:30:49;20.52;;;10.57;;
20629;SDS011;17386;43.846;25.950;2022-10-16T05:33:15;22.58;;;10.30;;
20629;SDS011;17386;43.846;25.950;2022-10-16T05:35:40;21.50;;;10.48;;
20629;SDS011;17386;43.846;25.950;2022-10-16T05:38:06;23.33;;;9.70;;
20629;SDS011;17386;43.846;25.950;2022-10-16T05:40:31;25.15;;;10.05;;
20629;SDS011;17386;43.846;25.950;2022-10-16T05:42:57;23.35;;;10.63;;
20629;SDS011;17386;43.846;25.950;2022-10-16T05:45:22;26.17;;;11.10;;
20629;SDS011;17386;43.846;25.950;2022-10-16T05:47:47;22.95;;;10.57;;
20629;SDS011;17386;43.846;25.950;2022-10-16T05:50:13;18.42;;;10.30;;
20629;SDS011;17386;43.846;25.950;2022-10-16T05:52:38;16.83;;;9.38;;
20629;SDS011;17386;43.846;25.950;2022-10-16T05:55:04;16.42;;;8.25;;
20629;SDS011;17386;43.846;25.950;2022-10-16T05:57:29;19.73;;;8.30;;
20629;SDS011;17386;43.846;25.950;2022-10-16T05:59:55;16.23;;;9.40;;
20629;SDS011;17386;43.846;25.950;2022-10-16T06:02:20;21.15;;;9.52;;
20629;SDS011;17386;43.846;25.950;2022-10-16T06:04:46;13.98;;;8.13;;
20629;SDS011;17386;43.846;25.950;2022-10-16T06:07:12;18.30;;;9.85;;
20629;SDS011;17386;43.846;25.950;2022-10-16T06:09:37;17.10;;;8.70;;
20629;SDS011;17386;43.846;25.950;2022-10-16T06:12:03;17.83;;;9.60;;
20629;SDS011;17386;43.846;25.950;2022-10-16T06:14:28;20.00;;;9.63;;
20629;SDS011;17386;43.846;25.950;2022-10-16T06:16:53;16.98;;;9.65;;
20629;SDS011;17386;43.846;25.950;2022-10-16T06:19:19;16.60;;;8.75;;
20629;SDS011;17386;43.846;25.950;2022-10-16T06:21:44;20.92;;;10.30;;
20629;SDS011;17386;43.846;25.950;2022-10-16T06:24:10;15.27;;;8.57;;
20629;SDS011;17386;43.846;25.950;2022-10-16T06:26:36;14.93;;;8.05;;
20629;SDS011;17386;43.846;25.950;2022-10-16T06:29:02;17.33;;;8.07;;
20629;SDS011;17386;43.846;25.950;2022-10-16T06:31:28;21.33;;;8.82;;
20629;SDS011;17386;43.846;25.950;2022-10-16T06:33:56;15.45;;;8.35;;
20629;SDS011;17386;43.846;25.950;2022-10-16T06:36:22;12.52;;;8.30;;
20629;SDS011;17386;43.846;25.950;2022-10-16T06:38:48;13.82;;;7.75;;
20629;SDS011;17386;43.846;25.950;2022-10-16T06:41:15;19.80;;;10.05;;
20629;SDS011;17386;43.846;25.950;2022-10-16T06:43:42;14.73;;;9.35;;
20629;SDS011;17386;43.846;25.950;2022-10-16T06:46:10;14.02;;;8.77;;
20629;SDS011;17386;43.846;25.950;2022-10-16T06:48:37;15.13;;;8.50;;
20629;SDS011;17386;43.846;25.950;2022-10-16T06:51:10;19.23;;;9.23;;
20629;SDS011;17386;43.846;25.950;2022-10-16T06:53:43;14.93;;;8.88;;
20629;SDS011;17386;43.846;25.950;2022-10-16T06:58:37;25.05;;;10.32;;
20629;SDS011;17386;43.846;25.950;2022-10-16T07:01:03;15.85;;;8.95;;
20629;SDS011;17386;43.846;25.950;2022-10-16T07:03:29;14.65;;;9.10;;
20629;SDS011;17386;43.846;25.950;2022-10-16T07:05:55;25.05;;;12.95;;
20629;SDS011;17386;43.846;25.950;2022-10-16T07:08:21;13.68;;;8.93;;
20629;SDS011;17386;43.846;25.950;2022-10-16T07:10:47;18.50;;;9.40;;
20629;SDS011;17386;43.846;25.950;2022-10-16T07:13:12;19.58;;;9.95;;
20629;SDS011;17386;43.846;25.950;2022-10-16T07:15:39;16.60;;;9.93;;
20629;SDS011;17386;43.846;25.950;2022-10-16T07:18:05;14.20;;;9.32;;
20629;SDS011;17386;43.846;25.950;2022-10-16T07:20:30;17.10;;;10.18;;
20629;SDS011;17386;43.846;25.950;2022-10-16T07:22:55;19.52;;;11.18;;
20629;SDS011;17386;43.846;25.950;2022-10-16T07:25:21;21.38;;;11.05;;
20629;SDS011;17386;43.846;25.950;2022-10-16T07:27:46;16.33;;;10.88;;
20629;SDS011;17386;43.846;25.950;2022-10-16T07:30:11;20.15;;;10.48;;
20629;SDS011;17386;43.846;25.950;2022-10-16T07:32:37;20.48;;;10.57;;
20629;SDS011;17386;43.846;25.950;2022-10-16T07:35:02;16.80;;;10.52;;
20629;SDS011;17386;43.846;25.950;2022-10-16T07:37:28;15.40;;;9.40;;
20629;SDS011;17386;43.846;25.950;2022-10-16T07:39:54;17.90;;;10.45;;
20629;SDS011;17386;43.846;25.950;2022-10-16T07:42:19;18.50;;;9.70;;
20629;SDS011;17386;43.846;25.950;2022-10-16T07:44:45;17.17;;;9.55;;
20629;SDS011;17386;43.846;25.950;2022-10-16T07:47:10;13.70;;;9.48;;
20629;SDS011;17386;43.846;25.950;2022-10-16T07:49:36;19.13;;;9.38;;
20629;SDS011;17386;43.846;25.950;2022-10-16T07:52:01;13.65;;;9.15;;
20629;SDS011;17386;43.846;25.950;2022-10-16T07:54:27;13.45;;;8.70;;
20629;SDS011;17386;43.846;25.950;2022-10-16T07:56:52;16.63;;;9.30;;
20629;SDS011;17386;43.846;25.950;2022-10-16T07:59:17;18.25;;;9.70;;
20629;SDS011;17386;43.846;25.950;2022-10-16T08:01:43;18.15;;;9.05;;
20629;SDS011;17386;43.846;25.950;2022-10-16T08:04:09;16.25;;;9.65;;
20629;SDS011;17386;43.846;25.950;2022-10-16T08:06:37;14.10;;;9.23;;
20629;SDS011;17386;43.846;25.950;2022-10-16T08:09:06;15.63;;;9.50;;
20629;SDS011;17386;43.846;25.950;2022-10-16T08:11:32;15.52;;;9.50;;
20629;SDS011;17386;43.846;25.950;2022-10-16T08:13:58;15.52;;;8.27;;
20629;SDS011;17386;43.846;25.950;2022-10-16T08:16:23;14.98;;;9.10;;
20629;SDS011;17386;43.846;25.950;2022-10-16T08:18:49;14.00;;;9.00;;
20629;SDS011;17386;43.846;25.950;2022-10-16T08:21:17;16.25;;;9.27;;
20629;SDS011;17386;43.846;25.950;2022-10-16T08:23:45;20.10;;;9.27;;
20629;SDS011;17386;43.846;25.950;2022-10-16T08:26:10;12.52;;;6.95;;
20629;SDS011;17386;43.846;25.950;2022-10-16T08:28:36;15.32;;;6.75;;
20629;SDS011;17386;43.846;25.950;2022-10-16T08:31:10;12.30;;;6.60;;
20629;SDS011;17386;43.846;25.950;2022-10-16T08:33:37;12.27;;;6.60;;
20629;SDS011;17386;43.846;25.950;2022-10-16T08:36:04;11.50;;;6.75;;
20629;SDS011;17386;43.846;25.950;2022-10-16T08:38:30;10.63;;;5.40;;
20629;SDS011;17386;43.846;25.950;2022-10-16T08:41:19;9.85;;;5.55;;
20629;SDS011;17386;43.846;25.950;2022-10-16T08:47:05;11.55;;;6.70;;
20629;SDS011;17386;43.846;25.950;2022-10-16T08:49:33;12.73;;;6.60;;
20629;SDS011;17386;43.846;25.950;2022-10-16T08:51:59;16.65;;;7.40;;
20629;SDS011;17386;43.846;25.950;2022-10-16T08:57:09;14.75;;;6.30;;
20629;SDS011;17386;43.846;25.950;2022-10-16T08:59:38;10.93;;;7.13;;
20629;SDS011;17386;43.846;25.950;2022-10-16T09:02:08;10.65;;;6.65;;
20629;SDS011;17386;43.846;25.950;2022-10-16T09:15:38;15.38;;;7.88;;
20629;SDS011;17386;43.846;25.950;2022-10-16T09:23:27;11.90;;;6.22;;
20629;SDS011;17386;43.846;25.950;2022-10-16T09:25:55;10.15;;;6.40;;
20629;SDS011;17386;43.846;25.950;2022-10-16T09:28:22;18.10;;;7.75;;
20629;SDS011;17386;43.846;25.950;2022-10-16T09:30:48;14.88;;;6.55;;
20629;SDS011;17386;43.846;25.950;2022-10-16T09:33:15;16.23;;;8.15;;
20629;SDS011;17386;43.846;25.950;2022-10-16T09:35:43;13.70;;;6.93;;
20629;SDS011;17386;43.846;25.950;2022-10-16T09:40:50;12.23;;;6.95;;
20629;SDS011;17386;43.846;25.950;2022-10-16T09:43:20;10.27;;;5.90;;
20629;SDS011;17386;43.846;25.950;2022-10-16T09:48:50;11.93;;;6.00;;
20629;SDS011;17386;43.846;25.950;2022-10-16T09:51:28;11.50;;;6.22;;
20629;SDS011;17386;43.846;25.950;2022-10-16T09:53:57;12.18;;;6.43;;
20629;SDS011;17386;43.846;25.950;2022-10-16T09:56:30;11.65;;;7.78;;
20629;SDS011;17386;43.846;25.950;2022-10-16T10:01:40;10.73;;;5.75;;
20629;SDS011;17386;43.846;25.950;2022-10-16T10:04:08;9.57;;;5.38;;
20629;SDS011;17386;43.846;25.950;2022-10-16T10:06:52;11.27;;;5.88;;
20629;SDS011;17386;43.846;25.950;2022-10-16T10:09:21;8.65;;;5.97;;
20629;SDS011;17386;43.846;25.950;2022-10-16T10:19:29;11.02;;;6.45;;
20629;SDS011;17386;43.846;25.950;2022-10-16T10:21:55;10.38;;;6.50;;
20629;SDS011;17386;43.846;25.950;2022-10-16T10:24:20;9.52;;;7.00;;
20629;SDS011;17386;43.846;25.950;2022-10-16T10:27:00;15.23;;;7.60;;
20629;SDS011;17386;43.846;25.950;2022-10-16T10:33:49;12.30;;;6.60;;
20629;SDS011;17386;43.846;25.950;2022-10-16T10:38:27;13.55;;;7.55;;
20629;SDS011;17386;43.846;25.950;2022-10-16T10:43:34;10.70;;;7.35;;
20629;SDS011;17386;43.846;25.950;2022-10-16T10:46:05;16.40;;;7.68;;
20629;SDS011;17386;43.846;25.950;2022-10-16T10:48:59;9.93;;;7.00;;
20629;SDS011;17386;43.846;25.950;2022-10-16T10:54:59;14.98;;;6.55;;
20629;SDS011;17386;43.846;25.950;2022-10-16T11:02:28;13.02;;;7.68;;
20629;SDS011;17386;43.846;25.950;2022-10-16T11:05:31;10.73;;;6.53;;
20629;SDS011;17386;43.846;25.950;2022-10-16T11:08:09;10.48;;;5.25;;
20629;SDS011;17386;43.846;25.950;2022-10-16T11:10:54;9.77;;;5.20;;
20629;SDS011;17386;43.846;25.950;2022-10-16T11:16:11;11.45;;;6.47;;
20629;SDS011;17386;43.846;25.950;2022-10-16T11:18:49;11.65;;;5.97;;
20629;SDS011;17386;43.846;25.950;2022-10-16T11:21:38;11.30;;;6.18;;
20629;SDS011;17386;43.846;25.950;2022-10-16T11:24:42;12.13;;;6.35;;
20629;SDS011;17386;43.846;25.950;2022-10-16T11:27:07;8.13;;;5.93;;
20629;SDS011;17386;43.846;25.950;2022-10-16T11:29:40;7.78;;;3.65;;
20629;SDS011;17386;43.846;25.950;2022-10-16T11:32:22;5.90;;;3.80;;
20629;SDS011;17386;43.846;25.950;2022-10-16T11:34:54;9.70;;;5.10;;
20629;SDS011;17386;43.846;25.950;2022-10-16T11:37:32;8.93;;;5.68;;
20629;SDS011;17386;43.846;25.950;2022-10-16T11:40:16;9.27;;;5.80;;
20629;SDS011;17386;43.846;25.950;2022-10-16T11:42:55;8.15;;;5.43;;
20629;SDS011;17386;43.846;25.950;2022-10-16T11:45:34;9.80;;;5.93;;
20629;SDS011;17386;43.846;25.950;2022-10-16T11:51:06;12.50;;;7.13;;
20629;SDS011;17386;43.846;25.950;2022-10-16T11:56:08;9.55;;;6.28;;
20629;SDS011;17386;43.846;25.950;2022-10-16T11:58:44;11.73;;;6.13;;
20629;SDS011;17386;43.846;25.950;2022-10-16T12:01:41;10.23;;;6.47;;
20629;SDS011;17386;43.846;25.950;2022-10-16T12:09:37;15.50;;;6.60;;
20629;SDS011;17386;43.846;25.950;2022-10-16T12:12:04;12.32;;;6.65;;
20629;SDS011;17386;43.846;25.950;2022-10-16T12:14:48;12.10;;;7.55;;
20629;SDS011;17386;43.846;25.950;2022-10-16T12:17:42;14.32;;;8.73;;
20629;SDS011;17386;43.846;25.950;2022-10-16T12:25:23;13.13;;;7.32;;
20629;SDS011;17386;43.846;25.950;2022-10-16T12:30:33;11.70;;;7.50;;
20629;SDS011;17386;43.846;25.950;2022-10-16T12:33:04;11.70;;;6.97;;
20629;SDS011;17386;43.846;25.950;2022-10-16T12:35:44;12.10;;;7.10;;
20629;SDS011;17386;43.846;25.950;2022-10-16T12:38:18;14.55;;;7.80;;
20629;SDS011;17386;43.846;25.950;2022-10-16T12:40:44;12.43;;;7.30;;
20629;SDS011;17386;43.846;25.950;2022-10-16T12:46:01;16.55;;;7.82;;
20629;SDS011;17386;43.846;25.950;2022-10-16T12:48:29;11.23;;;8.38;;
20629;SDS011;17386;43.846;25.950;2022-10-16T12:50:55;11.55;;;7.78;;
20629;SDS011;17386;43.846;25.950;2022-10-16T12:53:22;11.73;;;7.25;;
20629;SDS011;17386;43.846;25.950;2022-10-16T13:01:09;12.52;;;7.43;;
20629;SDS011;17386;43.846;25.950;2022-10-16T13:09:13;12.70;;;7.57;;
20629;SDS011;17386;43.846;25.950;2022-10-16T13:11:55;11.27;;;7.43;;
20629;SDS011;17386;43.846;25.950;2022-10-16T13:14:33;16.35;;;8.57;;
20629;SDS011;17386;43.846;25.950;2022-10-16T13:19:51;13.82;;;7.43;;
20629;SDS011;17386;43.846;25.950;2022-10-16T13:25:48;11.38;;;7.07;;
20629;SDS011;17386;43.846;25.950;2022-10-16T13:28:16;10.68;;;6.88;;
20629;SDS011;17386;43.846;25.950;2022-10-16T13:30:50;12.20;;;6.18;;
20629;SDS011;17386;43.846;25.950;2022-10-16T13:36:04;14.32;;;7.05;;
20629;SDS011;17386;43.846;25.950;2022-10-16T13:38:35;10.90;;;6.97;;
20629;SDS011;17386;43.846;25.950;2022-10-16T13:41:02;10.40;;;6.88;;
20629;SDS011;17386;43.846;25.950;2022-10-16T13:43:37;16.23;;;6.88;;
20629;SDS011;17386;43.846;25.950;2022-10-16T13:46:13;8.65;;;5.88;;
20629;SDS011;17386;43.846;25.950;2022-10-16T13:48:39;12.30;;;6.50;;
20629;SDS011;17386;43.846;25.950;2022-10-16T13:51:06;14.10;;;6.57;;
20629;SDS011;17386;43.846;25.950;2022-10-16T13:53:37;10.98;;;6.80;;
20629;SDS011;17386;43.846;25.950;2022-10-16T13:56:03;11.20;;;6.60;;
20629;SDS011;17386;43.846;25.950;2022-10-16T13:58:30;9.10;;;5.80;;
20629;SDS011;17386;43.846;25.950;2022-10-16T14:01:00;9.85;;;6.15;;
20629;SDS011;17386;43.846;25.950;2022-10-16T14:03:26;14.95;;;7.63;;
20629;SDS011;17386;43.846;25.950;2022-10-16T14:05:54;11.75;;;6.55;;
20629;SDS011;17386;43.846;25.950;2022-10-16T14:08:22;9.35;;;6.15;;
20629;SDS011;17386;43.846;25.950;2022-10-16T14:10:50;8.82;;;5.90;;
20629;SDS011;17386;43.846;25.950;2022-10-16T14:13:42;12.40;;;6.07;;
20629;SDS011;17386;43.846;25.950;2022-10-16T14:16:18;12.23;;;5.97;;
20629;SDS011;17386;43.846;25.950;2022-10-16T14:18:47;10.70;;;5.97;;
20629;SDS011;17386;43.846;25.950;2022-10-16T14:21:21;10.80;;;6.13;;
20629;SDS011;17386;43.846;25.950;2022-10-16T14:23:46;12.18;;;5.45;;
20629;SDS011;17386;43.846;25.950;2022-10-16T14:26:13;9.63;;;5.72;;
20629;SDS011;17386;43.846;25.950;2022-10-16T14:28:40;7.70;;;5.13;;
20629;SDS011;17386;43.846;25.950;2022-10-16T14:31:41;13.90;;;5.60;;
20629;SDS011;17386;43.846;25.950;2022-10-16T14:34:01;11.52;;;5.68;;
20629;SDS011;17386;43.846;25.950;2022-10-16T14:36:26;12.82;;;5.82;;
20629;SDS011;17386;43.846;25.950;2022-10-16T14:41:26;11.07;;;5.20;;
20629;SDS011;17386;43.846;25.950;2022-10-16T14:43:54;13.00;;;4.80;;
20629;SDS011;17386;43.846;25.950;2022-10-16T14:46:30;9.48;;;4.70;;
20629;SDS011;17386;43.846;25.950;2022-10-16T14:51:36;9.88;;;4.80;;
20629;SDS011;17386;43.846;25.950;2022-10-16T14:54:10;10.07;;;4.70;;
20629;SDS011;17386;43.846;25.950;2022-10-16T14:59:33;7.78;;;4.45;;
20629;SDS011;17386;43.846;25.950;2022-10-16T15:02:00;12.63;;;4.55;;
20629;SDS011;17386;43.846;25.950;2022-10-16T15:04:40;9.85;;;4.93;;
20629;SDS011;17386;43.846;25.950;2022-10-16T15:07:06;11.63;;;4.43;;
20629;SDS011;17386;43.846;25.950;2022-10-16T15:09:32;11.48;;;5.00;;
20629;SDS011;17386;43.846;25.950;2022-10-16T15:11:58;15.23;;;4.95;;
20629;SDS011;17386;43.846;25.950;2022-10-16T15:14:23;8.95;;;4.50;;
20629;SDS011;17386;43.846;25.950;2022-10-16T15:16:48;10.88;;;4.57;;
20629;SDS011;17386;43.846;25.950;2022-10-16T15:19:14;9.95;;;4.97;;
20629;SDS011;17386;43.846;25.950;2022-10-16T15:21:39;7.70;;;4.97;;
20629;SDS011;17386;43.846;25.950;2022-10-16T15:24:08;9.63;;;5.10;;
20629;SDS011;17386;43.846;25.950;2022-10-16T15:26:36;14.73;;;5.15;;
20629;SDS011;17386;43.846;25.950;2022-10-16T15:29:02;10.90;;;5.82;;
20629;SDS011;17386;43.846;25.950;2022-10-16T15:31:27;9.13;;;5.88;;
20629;SDS011;17386;43.846;25.950;2022-10-16T15:33:53;18.23;;;6.43;;
20629;SDS011;17386;43.846;25.950;2022-10-16T15:36:26;13.68;;;6.00;;
20629;SDS011;17386;43.846;25.950;2022-10-16T15:38:52;12.80;;;6.28;;
20629;SDS011;17386;43.846;25.950;2022-10-16T15:41:18;12.02;;;6.53;;
20629;SDS011;17386;43.846;25.950;2022-10-16T15:43:44;10.50;;;5.85;;
20629;SDS011;17386;43.846;25.950;2022-10-16T15:46:11;12.25;;;6.35;;
20629;SDS011;17386;43.846;25.950;2022-10-16T15:48:39;15.13;;;5.97;;
20629;SDS011;17386;43.846;25.950;2022-10-16T15:51:05;14.45;;;6.78;;
20629;SDS011;17386;43.846;25.950;2022-10-16T15:53:32;14.77;;;6.80;;
20629;SDS011;17386;43.846;25.950;2022-10-16T15:56:01;15.95;;;7.72;;
20629;SDS011;17386;43.846;25.950;2022-10-16T15:58:30;15.05;;;6.80;;
20629;SDS011;17386;43.846;25.950;2022-10-16T16:00:57;15.20;;;7.40;;
20629;SDS011;17386;43.846;25.950;2022-10-16T16:03:23;16.50;;;7.05;;
20629;SDS011;17386;43.846;25.950;2022-10-16T16:05:48;14.95;;;7.68;;
20629;SDS011;17386;43.846;25.950;2022-10-16T16:08:14;15.93;;;8.30;;
20629;SDS011;17386;43.846;25.950;2022-10-16T16:10:39;19.27;;;8.10;;
20629;SDS011;17386;43.846;25.950;2022-10-16T16:13:04;15.25;;;8.07;;
20629;SDS011;17386;43.846;25.950;2022-10-16T16:15:30;13.35;;;7.40;;
20629;SDS011;17386;43.846;25.950;2022-10-16T16:17:55;13.10;;;7.10;;
20629;SDS011;17386;43.846;25.950;2022-10-16T16:20:21;19.30;;;7.82;;
20629;SDS011;17386;43.846;25.950;2022-10-16T16:22:46;17.92;;;8.35;;
20629;SDS011;17386;43.846;25.950;2022-10-16T16:25:12;17.52;;;9.10;;
20629;SDS011;17386;43.846;25.950;2022-10-16T16:27:37;20.00;;;8.77;;
20629;SDS011;17386;43.846;25.950;2022-10-16T16:30:04;26.98;;;10.30;;
20629;SDS011;17386;43.846;25.950;2022-10-16T16:32:32;25.20;;;10.52;;
20629;SDS011;17386;43.846;25.950;2022-10-16T16:34:58;31.08;;;12.40;;
20629;SDS011;17386;43.846;25.950;2022-10-16T16:37:23;28.63;;;11.55;;